createdAt,value
2019-03-09T00:01:39.975Z,93.00
2019-03-09T00:04:09.423Z,92.90
2019-03-09T00:06:38.814Z,92.90
2019-03-09T00:09:09.402Z,93.00
2019-03-09T00:11:38.816Z,93.10
2019-03-09T00:14:08.311Z,93.10
2019-03-09T00:16:37.744Z,93.10
2019-03-09T00:19:07.188Z,93.30
2019-03-09T00:21:36.672Z,93.80
2019-03-09T00:24:27.449Z,93.60
2019-03-09T00:27:07.197Z,93.90
2019-03-09T00:29:50.974Z,93.80
2019-03-09T00:32:23.327Z,93.90
2019-03-09T00:34:52.730Z,94.00
2019-03-09T00:37:22.311Z,93.80
2019-03-09T00:39:51.751Z,93.60
2019-03-09T00:42:21.169Z,93.90
2019-03-09T00:44:50.704Z,93.90
2019-03-09T00:47:20.104Z,94.00
2019-03-09T00:49:49.544Z,94.00
2019-03-09T00:52:18.963Z,94.00
2019-03-09T00:54:48.425Z,93.90
2019-03-09T00:57:17.838Z,94.00
2019-03-09T00:59:47.288Z,94.10
2019-03-09T01:02:16.698Z,93.70
2019-03-09T01:04:46.129Z,93.70
2019-03-09T01:07:15.571Z,94.70
2019-03-09T01:09:44.995Z,94.10
2019-03-09T01:12:14.404Z,94.00
2019-03-09T01:14:43.845Z,94.10
2019-03-09T01:17:13.314Z,94.20
2019-03-09T01:19:42.836Z,93.90
2019-03-09T01:22:12.277Z,93.90
2019-03-09T01:24:41.718Z,94.40
2019-03-09T01:27:11.214Z,94.40
2019-03-09T01:29:40.680Z,94.40
2019-03-09T01:32:10.094Z,94.40
2019-03-09T01:34:39.539Z,94.50
2019-03-09T01:37:08.969Z,94.50
2019-03-09T01:39:38.412Z,94.50
2019-03-09T01:42:07.822Z,94.70
2019-03-09T01:44:37.289Z,94.50
2019-03-09T01:47:06.723Z,94.50
2019-03-09T01:49:36.174Z,94.70
2019-03-09T01:52:05.660Z,94.60
2019-03-09T01:54:35.102Z,94.80
2019-03-09T01:57:04.510Z,94.80
2019-03-09T01:59:33.936Z,94.60
2019-03-09T02:02:03.342Z,94.60
2019-03-09T02:04:32.786Z,95.00
2019-03-09T02:07:02.294Z,94.90
2019-03-09T02:09:31.739Z,94.60
2019-03-09T02:12:01.146Z,94.60
2019-03-09T02:14:30.597Z,94.70
2019-03-09T02:17:00.050Z,94.60
2019-03-09T02:19:29.502Z,95.10
2019-03-09T02:21:58.909Z,95.30
2019-03-09T02:24:28.349Z,94.80
2019-03-09T02:26:57.764Z,95.00
2019-03-09T02:29:27.273Z,95.00
2019-03-09T02:31:56.687Z,95.20
2019-03-09T02:34:26.123Z,94.90
2019-03-09T02:36:55.631Z,95.00
2019-03-09T02:39:29.756Z,95.00
2019-03-09T02:41:59.485Z,95.30
2019-03-09T02:44:28.921Z,95.20
2019-03-09T02:46:58.384Z,95.30
2019-03-09T02:49:27.793Z,95.60
2019-03-09T02:51:57.217Z,95.70
2019-03-09T02:54:26.654Z,95.90
2019-03-09T02:56:56.102Z,95.20
2019-03-09T02:59:25.509Z,95.30
2019-03-09T03:02:16.785Z,95.60
2019-03-09T03:04:46.226Z,95.60
2019-03-09T03:07:15.687Z,95.70
2019-03-09T03:09:45.093Z,96.10
2019-03-09T03:12:14.541Z,96.00
2019-03-09T03:14:43.954Z,96.30
2019-03-09T03:17:13.419Z,96.50
2019-03-09T03:19:42.835Z,96.40
2019-03-09T03:22:12.298Z,96.50
2019-03-09T03:24:41.720Z,96.90
2019-03-09T03:27:11.166Z,96.40
2019-03-09T03:29:40.576Z,96.60
2019-03-09T03:32:10.039Z,96.80
2019-03-09T03:34:39.545Z,97.50
2019-03-09T03:37:08.986Z,97.00
2019-03-09T03:39:38.492Z,97.60
2019-03-09T03:42:08.133Z,98.10
2019-03-09T03:44:46.516Z,97.50
2019-03-09T03:47:17.275Z,97.90
2019-03-09T03:49:48.202Z,98.10
2019-03-09T03:52:17.632Z,98.20
2019-03-09T03:54:47.052Z,98.20
2019-03-09T03:57:16.486Z,98.30
2019-03-09T03:59:45.898Z,98.20
2019-03-09T04:02:15.325Z,99.30
2019-03-09T04:04:44.759Z,98.70
2019-03-09T04:07:14.416Z,99.00
2019-03-09T04:09:44.135Z,98.80
2019-03-09T04:12:13.687Z,99.80
2019-03-09T04:14:43.117Z,99.30
2019-03-09T04:17:12.583Z,99.60
2019-03-09T04:19:41.986Z,99.40
2019-03-09T04:22:11.433Z,99.60
2019-03-09T04:24:40.853Z,99.60
2019-03-09T04:27:10.284Z,99.40
2019-03-09T04:29:39.813Z,99.90
2019-03-09T04:32:09.267Z,99.50
2019-03-09T04:34:38.683Z,99.80
2019-03-09T04:37:08.134Z,99.90
2019-03-09T04:39:37.541Z,99.80
2019-03-09T04:42:06.982Z,99.80
2019-03-09T04:44:36.378Z,99.90
2019-03-09T04:47:05.820Z,99.60
2019-03-09T04:49:35.224Z,99.40
2019-03-09T04:52:04.657Z,99.90
2019-03-09T04:54:34.073Z,99.90
2019-03-09T04:57:03.556Z,99.90
2019-03-09T04:59:32.991Z,99.90
2019-03-09T05:02:02.436Z,99.90
2019-03-09T05:05:00.361Z,99.70
2019-03-09T05:07:59.406Z,99.90
2019-03-09T05:11:00.126Z,99.90
2019-03-09T05:13:45.419Z,99.90
2019-03-09T05:16:14.970Z,99.90
2019-03-09T05:18:44.429Z,99.90
2019-03-09T05:21:13.863Z,99.90
2019-03-09T05:23:43.306Z,99.90
2019-03-09T05:26:12.720Z,99.90
2019-03-09T05:28:42.161Z,99.90
2019-03-09T05:31:11.579Z,99.90
2019-03-09T05:33:41.021Z,99.90
2019-03-09T05:36:10.437Z,99.90
2019-03-09T05:38:39.883Z,99.90
2019-03-09T05:41:09.299Z,99.90
2019-03-09T05:43:38.738Z,99.90
2019-03-09T05:46:08.147Z,99.90
2019-03-09T05:48:37.590Z,99.90
2019-03-09T05:51:07.041Z,99.90
2019-03-09T05:53:36.497Z,99.90
2019-03-09T05:56:07.785Z,99.90
2019-03-09T05:58:36.998Z,99.90
2019-03-09T06:01:06.408Z,99.90
2019-03-09T06:03:35.861Z,99.90
2019-03-09T06:06:13.501Z,99.90
2019-03-09T06:08:43.259Z,99.90
2019-03-09T06:11:12.662Z,99.90
2019-03-09T06:13:42.100Z,99.90
2019-03-09T06:16:11.555Z,99.90
2019-03-09T06:18:41.005Z,99.90
2019-03-09T06:21:10.522Z,99.90
2019-03-09T06:23:39.954Z,99.90
2019-03-09T06:26:09.366Z,99.90
2019-03-09T06:28:38.812Z,99.90
2019-03-09T06:31:08.208Z,99.90
2019-03-09T06:33:38.598Z,99.90
2019-03-09T06:36:35.227Z,99.90
2019-03-09T06:39:11.901Z,99.90
2019-03-09T06:41:56.569Z,99.90
2019-03-09T06:44:27.217Z,99.90
2019-03-09T06:46:56.782Z,99.90
2019-03-09T06:49:26.249Z,99.90
2019-03-09T06:51:55.669Z,99.90
2019-03-09T06:54:25.114Z,99.90
2019-03-09T06:56:54.540Z,99.90
2019-03-09T06:59:23.979Z,99.90
2019-03-09T07:01:53.395Z,99.90
2019-03-09T07:04:22.849Z,99.90
2019-03-09T07:06:52.272Z,99.90
2019-03-09T07:09:21.716Z,99.90
2019-03-09T07:11:51.141Z,99.90
2019-03-09T07:15:16.210Z,99.90
2019-03-09T07:17:45.749Z,99.90
2019-03-09T07:20:15.385Z,99.90
2019-03-09T07:22:44.807Z,99.90
2019-03-09T07:25:14.242Z,99.90
2019-03-09T07:27:43.664Z,99.90
2019-03-09T07:30:15.945Z,99.90
2019-03-09T07:32:45.370Z,99.90
2019-03-09T07:35:14.811Z,99.90
2019-03-09T07:37:44.209Z,99.90
2019-03-09T07:40:13.679Z,99.90
2019-03-09T07:42:43.097Z,99.90
2019-03-09T07:45:13.336Z,99.90
2019-03-09T07:47:42.755Z,99.90
2019-03-09T07:50:12.600Z,99.90
2019-03-09T07:52:42.072Z,99.90
2019-03-09T07:55:13.335Z,99.90
2019-03-09T07:57:42.778Z,99.90
2019-03-09T08:00:14.348Z,99.90
2019-03-09T08:02:43.774Z,99.90
2019-03-09T08:05:15.141Z,99.90
2019-03-09T08:07:44.704Z,99.90
2019-03-09T08:10:16.357Z,99.90
2019-03-09T08:12:45.793Z,99.90
2019-03-09T08:15:16.981Z,99.90
2019-03-09T08:17:46.464Z,99.90
2019-03-09T08:20:16.343Z,99.90
2019-03-09T08:22:45.773Z,99.90
2019-03-09T08:25:15.907Z,99.90
2019-03-09T08:27:45.441Z,99.90
2019-03-09T08:30:19.569Z,99.90
2019-03-09T08:32:49.043Z,99.90
2019-03-09T08:35:19.771Z,99.90
2019-03-09T08:37:50.130Z,99.90
2019-03-09T08:40:19.582Z,99.90
2019-03-09T08:42:49.016Z,99.90
2019-03-09T08:45:19.228Z,99.90
2019-03-09T08:47:52.594Z,99.90
2019-03-09T08:50:21.316Z,99.90
2019-03-09T08:52:50.769Z,99.90
2019-03-09T08:55:20.347Z,99.90
2019-03-09T08:57:51.249Z,99.90
2019-03-09T09:00:30.302Z,99.90
2019-03-09T09:02:59.846Z,99.90
2019-03-09T09:05:29.388Z,99.90
2019-03-09T09:07:58.826Z,99.90
2019-03-09T09:10:28.233Z,99.90
2019-03-09T09:12:57.670Z,99.90
2019-03-09T09:15:27.085Z,99.90
2019-03-09T09:17:56.726Z,99.90
2019-03-09T09:20:26.134Z,99.90
2019-03-09T09:22:55.564Z,99.90
2019-03-09T09:25:24.980Z,99.90
2019-03-09T09:27:54.938Z,99.90
2019-03-09T09:30:26.005Z,99.90
2019-03-09T09:32:55.499Z,99.90
2019-03-09T09:35:25.049Z,99.90
2019-03-09T09:37:54.594Z,99.90
2019-03-09T09:40:24.353Z,99.90
2019-03-09T09:42:54.093Z,99.90
2019-03-09T09:45:23.614Z,99.90
2019-03-09T09:47:53.079Z,99.90
2019-03-09T09:50:22.512Z,99.90
2019-03-09T09:52:51.976Z,99.90
2019-03-09T09:55:21.379Z,99.90
2019-03-09T09:57:50.847Z,99.90
2019-03-09T10:00:22.431Z,99.90
2019-03-09T10:02:52.004Z,99.90
2019-03-09T10:05:22.441Z,99.90
2019-03-09T10:07:52.080Z,99.90
2019-03-09T10:10:21.857Z,99.90
2019-03-09T10:12:51.694Z,99.90
2019-03-09T10:15:23.259Z,99.90
2019-03-09T10:17:53.007Z,99.90
2019-03-09T10:20:22.418Z,99.90
2019-03-09T10:23:02.999Z,99.90
2019-03-09T10:25:23.530Z,99.90
2019-03-09T10:27:52.981Z,99.90
2019-03-09T10:30:22.773Z,99.90
2019-03-09T10:32:52.338Z,99.90
2019-03-09T10:35:21.996Z,99.90
2019-03-09T10:37:51.636Z,99.90
2019-03-09T10:40:21.077Z,99.90
2019-03-09T10:42:50.488Z,99.90
2019-03-09T10:45:19.988Z,99.90
2019-03-09T10:47:49.550Z,99.90
2019-03-09T10:50:19.057Z,99.90
2019-03-09T10:52:48.575Z,99.90
2019-03-09T10:55:19.700Z,99.90
2019-03-09T10:57:49.117Z,99.90
2019-03-09T11:00:26.877Z,99.90
2019-03-09T11:02:56.601Z,99.90
2019-03-09T11:05:26.184Z,99.90
2019-03-09T11:07:55.649Z,99.90
2019-03-09T11:10:25.095Z,99.90
2019-03-09T11:12:54.509Z,99.90
2019-03-09T11:15:23.970Z,99.90
2019-03-09T11:17:53.376Z,99.90
2019-03-09T11:20:22.940Z,99.90
2019-03-09T11:22:52.385Z,99.90
2019-03-09T11:25:21.816Z,99.90
2019-03-09T11:27:51.233Z,99.90
2019-03-09T11:30:25.042Z,99.90
2019-03-09T11:32:54.463Z,99.90
2019-03-09T11:35:23.896Z,99.90
2019-03-09T11:37:53.414Z,99.90
2019-03-09T11:40:22.879Z,99.90
2019-03-09T11:42:52.379Z,99.90
2019-03-09T11:45:21.951Z,99.90
2019-03-09T11:47:51.359Z,99.90
2019-03-09T11:50:21.006Z,99.90
2019-03-09T11:52:50.491Z,99.90
2019-03-09T11:55:19.931Z,99.90
2019-03-09T11:57:49.339Z,99.90
2019-03-09T12:00:22.639Z,99.90
2019-03-09T12:02:52.030Z,99.90
2019-03-09T12:05:23.708Z,99.70
2019-03-09T12:07:53.075Z,99.90
2019-03-09T12:10:22.494Z,99.90
2019-03-09T12:12:51.899Z,99.90
2019-03-09T12:15:21.394Z,99.90
2019-03-09T12:17:50.971Z,99.30
2019-03-09T12:20:21.738Z,99.60
2019-03-09T12:22:51.154Z,99.90
2019-03-09T12:25:20.687Z,99.60
2019-03-09T12:27:50.114Z,98.90
2019-03-09T12:30:20.609Z,98.60
2019-03-09T12:32:50.034Z,98.30
2019-03-09T12:35:19.473Z,98.30
2019-03-09T12:37:49.094Z,98.20
2019-03-09T12:40:18.537Z,98.10
2019-03-09T12:42:48.055Z,98.20
2019-03-09T12:45:18.001Z,98.40
2019-03-09T12:47:47.412Z,98.50
2019-03-09T12:50:17.802Z,98.60
2019-03-09T12:52:47.256Z,98.80
2019-03-09T12:55:16.827Z,98.60
2019-03-09T12:57:46.250Z,98.80
2019-03-09T13:00:17.556Z,98.30
2019-03-09T13:02:46.986Z,98.40
2019-03-09T13:05:17.645Z,98.30
2019-03-09T13:07:47.148Z,98.50
2019-03-09T13:10:17.006Z,98.70
2019-03-09T13:12:46.538Z,98.30
2019-03-09T13:15:16.443Z,98.60
2019-03-09T13:17:45.986Z,98.70
2019-03-09T13:20:15.804Z,98.60
2019-03-09T13:22:45.220Z,98.90
2019-03-09T13:25:15.187Z,99.10
2019-03-09T13:27:44.902Z,99.30
2019-03-09T13:30:19.314Z,98.90
2019-03-09T13:32:48.721Z,99.20
2019-03-09T13:35:18.177Z,99.20
2019-03-09T13:37:47.598Z,99.10
2019-03-09T13:40:17.478Z,99.00
2019-03-09T13:42:46.877Z,99.00
2019-03-09T13:45:16.335Z,99.10
2019-03-09T13:47:45.775Z,99.00
2019-03-09T13:50:15.230Z,99.30
2019-03-09T13:52:44.665Z,99.20
2019-03-09T13:55:14.425Z,99.20
2019-03-09T13:57:43.852Z,99.20
2019-03-09T14:00:14.816Z,99.40
2019-03-09T14:02:44.237Z,99.30
2019-03-09T14:05:13.680Z,99.00
2019-03-09T14:07:43.112Z,99.30
2019-03-09T14:10:13.277Z,99.50
2019-03-09T14:12:42.689Z,99.40
2019-03-09T14:15:13.690Z,99.60
2019-03-09T14:17:43.153Z,99.50
2019-03-09T14:20:13.581Z,99.40
2019-03-09T14:22:43.065Z,99.50
2019-03-09T14:25:12.878Z,99.50
2019-03-09T14:27:42.327Z,99.70
2019-03-09T14:30:13.485Z,99.70
2019-03-09T14:32:43.008Z,99.80
2019-03-09T14:35:12.676Z,99.80
2019-03-09T14:37:42.250Z,99.60
2019-03-09T14:40:12.320Z,99.80
2019-03-09T14:42:41.804Z,99.80
2019-03-09T14:45:15.844Z,99.60
2019-03-09T14:47:45.263Z,99.70
2019-03-09T14:50:14.846Z,99.70
2019-03-09T14:52:44.356Z,99.80
2019-03-09T14:55:14.125Z,99.90
2019-03-09T14:57:44.550Z,99.90
2019-03-09T15:00:16.881Z,99.90
2019-03-09T15:02:46.393Z,99.90
2019-03-09T15:05:15.814Z,99.90
2019-03-09T15:07:45.235Z,99.90
2019-03-09T15:10:15.015Z,99.90
2019-03-09T15:12:46.154Z,99.90
2019-03-09T15:15:15.995Z,99.90
2019-03-09T15:17:45.462Z,99.90
2019-03-09T15:20:16.179Z,99.90
2019-03-09T15:22:45.750Z,99.90
2019-03-09T15:25:15.443Z,99.90
2019-03-09T15:27:45.103Z,99.90
2019-03-09T15:30:16.394Z,99.90
2019-03-09T15:32:45.900Z,99.90
2019-03-09T15:35:16.422Z,99.90
2019-03-09T15:37:46.180Z,99.90
2019-03-09T15:40:17.460Z,99.90
2019-03-09T15:42:47.071Z,99.90
2019-03-09T15:45:16.568Z,99.90
2019-03-09T15:47:46.135Z,99.90
2019-03-09T15:50:16.115Z,99.90
2019-03-09T15:52:45.595Z,99.90
2019-03-09T15:55:15.524Z,99.90
2019-03-09T15:57:45.413Z,99.90
2019-03-09T16:00:17.446Z,99.90
2019-03-09T16:02:47.132Z,99.90
2019-03-09T16:05:16.511Z,99.90
2019-03-09T16:07:46.013Z,99.90
2019-03-09T16:10:15.847Z,99.90
2019-03-09T16:12:45.290Z,99.90
2019-03-09T16:15:15.444Z,99.90
2019-03-09T16:17:45.475Z,99.90
2019-03-09T16:20:16.177Z,99.90
2019-03-09T16:22:46.277Z,99.90
2019-03-09T16:25:15.711Z,99.90
2019-03-09T16:27:45.140Z,99.90
2019-03-09T16:30:16.940Z,99.90
2019-03-09T16:32:46.484Z,99.90
2019-03-09T16:35:16.116Z,99.90
2019-03-09T16:37:45.755Z,99.90
2019-03-09T16:40:15.773Z,99.90
2019-03-09T16:42:45.215Z,99.90
2019-03-09T16:45:14.924Z,99.90
2019-03-09T16:47:44.387Z,99.90
2019-03-09T16:50:14.255Z,99.90
2019-03-09T16:52:43.686Z,99.90
2019-03-09T16:55:13.337Z,99.90
2019-03-09T16:57:42.834Z,99.90
2019-03-09T17:00:15.357Z,99.90
2019-03-09T17:02:44.795Z,99.90
2019-03-09T17:05:14.633Z,99.90
2019-03-09T17:07:44.354Z,99.90
2019-03-09T17:10:14.148Z,99.90
2019-03-09T17:12:43.629Z,99.90
2019-03-09T17:15:13.810Z,99.90
2019-03-09T17:17:43.337Z,99.90
2019-03-09T17:20:13.442Z,99.90
2019-03-09T17:22:42.894Z,99.90
2019-03-09T17:25:12.600Z,99.90
2019-03-09T17:27:42.248Z,99.90
2019-03-09T17:30:14.196Z,99.90
2019-03-09T17:32:43.747Z,99.90
2019-03-09T17:35:13.470Z,99.90
2019-03-09T17:37:42.911Z,99.90
2019-03-09T17:40:13.349Z,99.90
2019-03-09T17:42:42.906Z,99.90
2019-03-09T17:45:19.322Z,99.90
2019-03-09T17:47:48.906Z,99.90
2019-03-09T17:50:18.364Z,99.90
2019-03-09T17:52:47.810Z,99.90
2019-03-09T17:55:17.398Z,99.90
2019-03-09T17:57:46.987Z,99.90
2019-03-09T18:00:18.973Z,99.90
2019-03-09T18:02:48.466Z,99.90
2019-03-09T18:05:19.713Z,99.90
2019-03-09T18:07:49.121Z,99.90
2019-03-09T18:10:22.343Z,99.90
2019-03-09T18:12:51.943Z,99.90
2019-03-09T18:15:21.353Z,99.90
2019-03-09T18:17:50.954Z,99.90
2019-03-09T18:20:20.426Z,99.90
2019-03-09T18:22:50.005Z,99.90
2019-03-09T18:25:19.490Z,99.90
2019-03-09T18:27:48.929Z,99.90
2019-03-09T18:30:18.355Z,99.90
2019-03-09T18:32:47.792Z,99.90
2019-03-09T18:35:17.296Z,99.90
2019-03-09T18:37:46.743Z,99.90
2019-03-09T18:40:16.272Z,99.90
2019-03-09T18:42:45.711Z,99.90
2019-03-09T18:45:16.602Z,99.90
2019-03-09T18:47:46.068Z,99.90
2019-03-09T18:50:15.659Z,99.90
2019-03-09T18:52:45.148Z,99.90
2019-03-09T18:55:14.583Z,99.90
2019-03-09T18:57:44.038Z,99.90
2019-03-09T19:00:15.646Z,99.90
2019-03-09T19:02:45.088Z,99.90
2019-03-09T19:05:14.685Z,99.90
2019-03-09T19:07:44.112Z,99.90
2019-03-09T19:10:14.030Z,99.90
2019-03-09T19:12:43.455Z,99.90
2019-03-09T19:15:13.769Z,99.90
2019-03-09T19:17:43.241Z,99.90
2019-03-09T19:20:13.341Z,99.90
2019-03-09T19:22:42.781Z,99.90
2019-03-09T19:25:12.618Z,99.90
2019-03-09T19:27:42.055Z,99.90
2019-03-09T19:30:13.534Z,99.90
2019-03-09T19:32:42.976Z,99.90
2019-03-09T19:35:12.705Z,99.90
2019-03-09T19:37:42.154Z,99.90
2019-03-09T19:40:13.278Z,99.90
2019-03-09T19:42:42.709Z,99.90
2019-03-09T19:45:13.702Z,99.90
2019-03-09T19:47:43.149Z,99.90
2019-03-09T19:50:14.672Z,99.90
2019-03-09T19:52:44.100Z,99.90
2019-03-09T19:55:13.716Z,99.90
2019-03-09T19:57:43.236Z,99.90
2019-03-09T20:00:13.530Z,99.90
2019-03-09T20:02:43.140Z,99.90
2019-03-09T20:05:12.550Z,99.90
2019-03-09T20:07:42.002Z,99.90
2019-03-09T20:10:12.259Z,99.90
2019-03-09T20:12:41.687Z,99.90
2019-03-09T20:15:12.917Z,99.90
2019-03-09T20:17:42.401Z,99.90
2019-03-09T20:20:12.573Z,99.90
2019-03-09T20:22:42.029Z,99.90
2019-03-09T20:25:11.565Z,99.90
2019-03-09T20:27:41.011Z,99.90
2019-03-09T20:30:10.905Z,99.90
2019-03-09T20:32:40.358Z,99.90
2019-03-09T20:35:09.822Z,99.90
2019-03-09T20:37:39.262Z,99.90
2019-03-09T20:40:09.910Z,99.90
2019-03-09T20:42:39.527Z,99.90
2019-03-09T20:45:11.073Z,99.90
2019-03-09T20:47:40.496Z,99.90
2019-03-09T20:50:11.779Z,99.90
2019-03-09T20:52:41.434Z,99.90
2019-03-09T20:55:11.062Z,99.90
2019-03-09T20:57:40.538Z,99.90
2019-03-09T21:00:12.875Z,99.90
2019-03-09T21:02:42.363Z,99.90
2019-03-09T21:05:13.147Z,99.90
2019-03-09T21:07:42.587Z,99.90
2019-03-09T21:10:13.194Z,99.90
2019-03-09T21:13:03.092Z,99.90
2019-03-09T21:15:32.641Z,99.90
2019-03-09T21:18:02.158Z,99.90
2019-03-09T21:20:31.658Z,99.90
2019-03-09T21:23:01.101Z,99.90
2019-03-09T21:25:30.500Z,99.90
2019-03-09T21:27:59.922Z,99.90
2019-03-09T21:30:29.347Z,99.90
2019-03-09T21:32:58.825Z,99.90
2019-03-09T21:35:28.251Z,99.90
2019-03-09T21:37:57.698Z,99.90
2019-03-09T21:40:27.158Z,99.90
2019-03-09T21:42:56.590Z,99.90
2019-03-09T21:45:26.006Z,99.90
2019-03-09T21:47:55.574Z,99.90
2019-03-09T21:50:24.977Z,99.90
2019-03-09T21:52:54.453Z,99.90
2019-03-09T21:55:23.881Z,99.90
2019-03-09T21:57:53.366Z,99.90
2019-03-09T22:00:22.792Z,99.90
2019-03-09T22:02:52.315Z,99.90
2019-03-09T22:05:21.725Z,99.90
2019-03-09T22:07:51.163Z,99.90
2019-03-09T22:10:20.574Z,99.90
2019-03-09T22:12:50.019Z,99.90
2019-03-09T22:15:19.458Z,99.90
2019-03-09T22:17:48.902Z,99.90
2019-03-09T22:20:20.535Z,99.90
2019-03-09T22:22:49.416Z,99.90
2019-03-09T22:25:18.820Z,99.90
2019-03-09T22:27:48.262Z,99.90
2019-03-09T22:30:17.722Z,99.90
2019-03-09T22:32:47.151Z,99.90
2019-03-09T22:35:16.575Z,99.90
2019-03-09T22:37:45.998Z,99.90
2019-03-09T22:40:15.482Z,99.90
2019-03-09T22:42:44.932Z,99.90
2019-03-09T22:45:14.345Z,99.90
2019-03-09T22:47:43.976Z,99.90
2019-03-09T22:50:14.336Z,99.90
2019-03-09T22:52:43.767Z,99.90
2019-03-09T22:55:15.213Z,99.90
2019-03-09T22:57:44.632Z,99.90
2019-03-09T23:00:15.927Z,99.90
2019-03-09T23:02:45.413Z,99.90
2019-03-09T23:05:14.977Z,99.90
2019-03-09T23:07:44.384Z,99.90
2019-03-09T23:10:15.519Z,99.90
2019-03-09T23:12:45.030Z,99.90
2019-03-09T23:15:15.339Z,99.90
2019-03-09T23:17:45.498Z,99.90
2019-03-09T23:20:15.170Z,99.90
2019-03-09T23:22:44.608Z,99.90
2019-03-09T23:25:15.195Z,99.90
2019-03-09T23:27:44.858Z,99.90
2019-03-09T23:30:16.256Z,99.90
2019-03-09T23:32:47.471Z,99.90
2019-03-09T23:35:17.242Z,99.90
2019-03-09T23:37:46.889Z,99.90
2019-03-09T23:40:16.577Z,99.90
2019-03-09T23:42:45.985Z,99.90
2019-03-09T23:45:16.551Z,99.90
2019-03-09T23:47:45.985Z,99.90
2019-03-09T23:50:16.190Z,99.90
2019-03-09T23:52:45.937Z,99.90
2019-03-09T23:55:21.857Z,99.90
2019-03-09T23:57:47.417Z,99.90
